Time;durP1;ratioP1;P1;durP2;ratioP2;P2;SDS_P1;SDS_P2;PMS_P1;PMS_P2;Temp;Humidity;BMP_temperature;BMP_pressure;BME280_temperature;BME280_humidity;BME280_pressure;Samples;Min_cycle;Max_cycle;Signal;HPM_P1;HPM_P2
2021/03/25 00:00:24;;;;;;;;;;;6.40;95.00;;;3.43;70.03;96194.56;10305948;28;2261;-84
2021/03/25 00:05:53;;;;;;;;;;;6.10;95.40;;;3.46;69.81;96190.69;10378972;28;2319;-88
2021/03/25 00:11:30;;;;;;;;;;;4.60;94.70;;;3.39;69.79;96189.94;10361424;28;2225;-86
2021/03/25 00:16:47;;;;;;;;;;;4.70;94.70;;;3.41;68.89;96182.56;10354310;28;1603;-86
2021/03/25 00:21:59;;;;;;;;;;;4.40;94.50;;;3.45;69.25;96176.59;10330671;28;2098;-88
2021/03/25 00:27:26;;;;;;;;;;;4.50;94.50;;;3.45;68.29;96178.44;10349218;28;2357;-85
2021/03/25 00:32:44;;;;;;;;;;;4.60;94.10;;;3.51;68.08;96175.72;10329969;28;2443;-85
2021/03/25 00:37:47;;;;;;;;;;;4.60;94.00;;;3.51;67.79;96177.56;10353816;28;2422;-87
2021/03/25 00:43:16;;;;;;;;;;;4.60;94.00;;;3.45;68.07;96167.81;10350011;28;1887;-87
2021/03/25 00:48:53;;;;;;;;;;;4.60;94.00;;;3.41;68.49;96158.63;10298275;28;1905;-84
2021/03/25 00:54:07;;;;;;;;;;;5.40;94.40;;;3.32;68.50;96157.31;10402996;28;1901;-88
2021/03/25 00:59:59;;;;;;;;;;;;;;;;;;;;;
2021/03/25 01:05:09;;;;;;;;;;;4.40;94.20;;;3.22;68.68;96150.63;10337056;28;2076;-86
2021/03/25 01:10:24;;;;;;;;;;;5.80;95.10;;;3.28;68.37;96148.13;10331003;28;1391;-86
2021/03/25 01:15:36;;;;;;;;;;;6.00;95.40;;;3.20;68.32;96150.03;10337257;28;1282;-86
2021/03/25 01:20:58;;;;;;;;;;;4.70;94.80;;;3.16;69.10;96140.88;10351013;28;2357;-85
2021/03/25 01:26:11;;;;;;;;;;;4.80;95.00;;;3.19;68.49;96140.44;10355057;28;2369;-86
2021/03/25 01:31:22;;;;;;;;;;;4.20;94.60;;;3.13;68.47;96141.31;10343356;28;2351;-85
2021/03/25 01:36:37;;;;;;;;;;;4.10;94.70;;;3.10;68.92;96133.78;10345365;28;1912;-86
2021/03/25 01:42:19;;;;;;;;;;;5.20;95.40;;;3.11;68.96;96135.38;10323752;28;2327;-86
2021/03/25 01:47:27;;;;;;;;;;;6.00;95.80;;;3.00;69.58;96132.66;10329368;28;2699;-85
2021/03/25 01:52:42;;;;;;;;;;;4.20;95.10;;;3.04;68.50;96134.63;10324565;28;2431;-85
2021/03/25 01:58:11;;;;;;;;;;;4.20;95.10;;;3.13;68.42;96127.22;10340365;28;2377;-87
2021/03/25 02:03:25;;;;;;;;;;;5.60;95.80;;;2.98;69.14;96124.88;10368775;28;1907;-87
2021/03/25 02:14:50;;;;;;;;;;;4.50;95.30;;;2.94;68.84;96129.81;10354153;28;2369;-87
2021/03/25 02:20:27;;;;;;;;;;;4.10;95.10;;;2.85;69.31;96119.69;10342836;28;2462;-87
2021/03/25 02:25:55;;;;;;;;;;;4.10;95.40;;;2.83;69.70;96122.56;10405480;23;3708;-88
2021/03/25 02:30:57;;;;;;;;;;;4.00;95.70;;;2.94;69.24;96113.09;10397938;28;1742;-85
2021/03/25 02:35:59;;;;;;;;;;;4.90;96.40;;;2.91;68.88;96118.81;10379358;28;2221;-87
2021/03/25 02:41:04;;;;;;;;;;;4.20;95.80;;;2.78;69.94;96113.59;10372851;28;2494;-86
2021/03/25 02:46:06;;;;;;;;;;;6.30;97.20;;;2.83;69.68;96114.59;10367388;28;2114;-86
2021/03/25 02:51:09;;;;;;;;;;;5.50;97.10;;;2.85;68.95;96109.06;10407656;28;1798;-84
2021/03/25 02:56:19;;;;;;;;;;;6.00;97.10;;;2.89;69.16;96112.91;10362498;28;1243;-85
2021/03/25 03:01:26;;;;;;;;;;;4.00;96.30;;;2.86;69.15;96111.53;10376217;28;2567;-85
2021/03/25 03:06:51;;;;;;;;;;;5.60;96.70;;;2.66;70.10;96111.66;10356010;28;2136;-86
2021/03/25 03:12:21;;;;;;;;;;;4.70;96.70;;;2.51;70.39;96116.47;10385931;23;2646;-86
2021/03/25 03:17:35;;;;;;;;;;;3.70;96.70;;;2.45;70.91;96117.31;10379557;28;2395;-88
2021/03/25 03:22:53;;;;;;;;;;;3.60;97.00;;;2.47;70.42;96119.75;10389949;28;2433;-86
2021/03/25 03:28:01;;;;;;;;;;;5.00;98.00;;;2.48;69.88;96116.88;10370600;28;1696;-86
2021/03/25 03:33:40;;;;;;;;;;;;;;;;;;;;;
2021/03/25 03:44:21;;;;;;;;;;;3.70;97.20;;;2.58;70.02;96103.16;10333375;28;2525;-84
2021/03/25 03:55:50;;;;;;;;;;;3.70;96.90;;;2.62;69.44;96102.50;10357232;28;2031;-89
2021/03/25 04:01:12;;;;;;;;;;;5.40;97.60;;;2.64;68.72;96103.09;10349948;28;2344;-87
2021/03/25 04:06:40;;;;;;;;;;;3.60;96.60;;;2.50;69.62;96109.53;10369163;28;2483;-85
2021/03/25 04:12:08;;;;;;;;;;;3.60;96.70;;;2.44;70.16;96108.53;10330393;28;2423;-84
2021/03/25 04:17:33;;;;;;;;;;;;;;;;;;;;;
2021/03/25 04:22:42;;;;;;;;;;;3.50;97.70;;;2.37;70.31;96107.78;10331765;28;2022;-87
2021/03/25 04:27:51;;;;;;;;;;;4.60;98.30;;;2.44;69.86;96113.84;10324881;28;2084;-84
2021/03/25 04:33:26;;;;;;;;;;;4.60;98.30;;;2.46;70.36;96113.63;10294511;28;2273;-84
2021/03/25 04:38:33;;;;;;;;;;;3.60;97.90;;;2.42;70.33;96110.59;10326289;28;2369;-85
2021/03/25 04:44:12;;;;;;;;;;;5.00;98.70;;;2.38;70.18;96106.75;10335033;28;1915;-86
2021/03/25 04:55:16;;;;;;;;;;;;;;;;;;;;;
2021/03/25 05:01:10;;;;;;;;;;;5.50;99.10;;;2.39;70.66;96110.22;10372171;28;1887;-85
2021/03/25 05:06:27;;;;;;;;;;;4.80;98.80;;;2.40;70.12;96117.13;10363527;28;1999;-86
2021/03/25 05:17:37;;;;;;;;;;;3.90;98.30;;;2.60;68.85;96124.97;10336156;28;2421;-87
2021/03/25 05:22:50;;;;;;;;;;;3.50;97.80;;;2.78;68.38;96113.59;10375767;28;1955;-84
2021/03/25 05:28:16;;;;;;;;;;;4.00;97.50;;;2.85;67.82;96122.34;10375991;28;2510;-85
2021/03/25 05:38:56;;;;;;;;;;;5.90;97.40;;;3.33;65.91;96113.75;10333151;28;1875;-86
2021/03/25 05:44:11;;;;;;;;;;;4.20;95.90;;;3.57;64.99;96122.72;10343541;28;2367;-84
2021/03/25 05:49:19;;;;;;;;;;;5.00;95.10;;;3.80;64.31;96114.88;10369488;28;2313;-86
2021/03/25 05:54:48;;;;;;;;;;;5.50;94.80;;;4.06;64.37;96121.72;10347717;28;1971;-83
2021/03/25 05:59:53;;;;;;;;;;;5.90;94.40;;;4.31;62.61;96119.75;10343169;28;1951;-86
2021/03/25 06:05:19;;;;;;;;;;;5.10;92.70;;;4.65;61.45;96120.09;10337095;28;1985;-87
2021/03/25 06:21:35;;;;;;;;;;;5.90;89.50;;;5.42;58.54;96125.41;10521030;23;2483;-90
2021/03/25 06:27:24;;;;;;;;;;;;;;;;;;;;;
2021/03/25 07:16:18;;;;;;;;;;;9.10;79.20;;;7.94;48.76;96163.38;10395743;28;2551;-86
2021/03/25 07:22:15;;;;;;;;;;;;;;;;;;;;;
2021/03/25 07:27:46;;;;;;;;;;;10.60;78.10;;;8.65;46.37;96158.94;10023747;29;2449;-85
2021/03/25 07:51:46;;;;;;;;;;;11.10;72.70;;;9.81;43.27;96172.81;10099334;29;2018;-89
2021/03/25 07:57:27;;;;;;;;;;;10.40;71.10;;;9.86;42.51;96162.09;10045674;29;1880;-84
2021/03/25 08:02:45;;;;;;;;;;;10.70;69.30;;;10.12;41.76;96163.06;10169404;28;1984;-86
2021/03/25 08:08:31;;;;;;;;;;;10.90;68.80;;;10.42;40.96;96162.41;10249168;28;1649;-88
2021/03/25 08:14:04;;;;;;;;;;;11.20;67.40;;;10.78;39.55;96163.34;10310659;28;2394;-85
2021/03/25 08:19:45;;;;;;;;;;;11.50;66.30;;;11.07;39.34;96166.38;10311953;28;2163;-86
2021/03/25 09:31:25;;;;;;;;;;;14.60;58.90;;;13.86;33.71;96133.97;10318679;28;2288;-86
2021/03/25 09:59:26;;;;;;;;;;;14.90;55.30;;;13.75;33.42;96127.09;10360710;28;2041;-88
2021/03/25 11:31:08;;;;;;;;;;;16.00;52.10;;;15.02;31.56;96067.94;10248838;28;1942;-86
2021/03/25 22:22:17;;;;;;;;;;;9.10;64.90;;;7.80;47.81;96130.81;10342328;28;2276;-85
2021/03/25 22:33:35;;;;;;;;;;;8.90;66.70;;;7.61;50.09;96136.69;10364232;28;2139;-85
2021/03/25 23:02:55;;;;;;;;;;;8.30;70.80;;;6.96;54.09;96149.59;10256115;23;2254;-87
2021/03/25 23:20:47;;;;;;;;;;;7.90;73.00;;;6.82;54.88;96155.50;10165362;29;1744;-84
2021/03/25 23:31:58;;;;;;;;;;;9.40;74.20;;;6.90;55.58;96157.75;10153129;29;2113;-86
